sensor_id;sensor_type;location;lat;lon;timestamp;P1;durP1;ratioP1;P2;durP2;ratioP2
23712;SDS011;12035;49.978;8.298;2022-12-11T00:03:03;17.55;;;10.30;;
23712;SDS011;12035;49.978;8.298;2022-12-11T00:08:00;19.63;;;10.75;;
23712;SDS011;12035;49.978;8.298;2022-12-11T00:12:58;19.80;;;11.23;;
23712;SDS011;12035;49.978;8.298;2022-12-11T00:17:55;19.25;;;11.00;;
23712;SDS011;12035;49.978;8.298;2022-12-11T00:22:52;19.35;;;11.05;;
23712;SDS011;12035;49.978;8.298;2022-12-11T00:27:50;19.17;;;10.93;;
23712;SDS011;12035;49.978;8.298;2022-12-11T00:32:48;19.95;;;12.02;;
23712;SDS011;12035;49.978;8.298;2022-12-11T00:37:47;19.60;;;11.45;;
23712;SDS011;12035;49.978;8.298;2022-12-11T00:42:43;18.13;;;10.27;;
23712;SDS011;12035;49.978;8.298;2022-12-11T00:47:41;17.98;;;10.40;;
23712;SDS011;12035;49.978;8.298;2022-12-11T00:52:39;21.42;;;11.70;;
23712;SDS011;12035;49.978;8.298;2022-12-11T00:57:37;18.85;;;10.48;;
23712;SDS011;12035;49.978;8.298;2022-12-11T01:02:34;18.48;;;9.85;;
23712;SDS011;12035;49.978;8.298;2022-12-11T01:07:31;20.88;;;11.10;;
23712;SDS011;12035;49.978;8.298;2022-12-11T01:12:29;22.83;;;11.57;;
23712;SDS011;12035;49.978;8.298;2022-12-11T01:17:26;19.65;;;11.60;;
23712;SDS011;12035;49.978;8.298;2022-12-11T01:22:23;18.95;;;10.32;;
23712;SDS011;12035;49.978;8.298;2022-12-11T01:27:21;22.80;;;12.45;;
23712;SDS011;12035;49.978;8.298;2022-12-11T01:32:19;21.98;;;12.57;;
23712;SDS011;12035;49.978;8.298;2022-12-11T01:37:16;25.70;;;13.80;;
23712;SDS011;12035;49.978;8.298;2022-12-11T01:42:14;25.23;;;13.05;;
23712;SDS011;12035;49.978;8.298;2022-12-11T01:47:14;23.10;;;12.88;;
23712;SDS011;12035;49.978;8.298;2022-12-11T01:52:13;22.40;;;12.27;;
23712;SDS011;12035;49.978;8.298;2022-12-11T01:57:15;24.30;;;12.68;;
23712;SDS011;12035;49.978;8.298;2022-12-11T02:02:14;22.00;;;13.15;;
23712;SDS011;12035;49.978;8.298;2022-12-11T02:07:17;25.60;;;13.35;;
23712;SDS011;12035;49.978;8.298;2022-12-11T02:12:16;22.05;;;11.95;;
23712;SDS011;12035;49.978;8.298;2022-12-11T02:17:21;22.07;;;11.97;;
23712;SDS011;12035;49.978;8.298;2022-12-11T02:22:31;19.02;;;10.85;;
23712;SDS011;12035;49.978;8.298;2022-12-11T02:27:50;26.52;;;11.52;;
23712;SDS011;12035;49.978;8.298;2022-12-11T02:33:00;19.25;;;10.57;;
23712;SDS011;12035;49.978;8.298;2022-12-11T02:37:58;19.65;;;11.65;;
23712;SDS011;12035;49.978;8.298;2022-12-11T02:43:00;20.95;;;11.85;;
23712;SDS011;12035;49.978;8.298;2022-12-11T02:48:02;17.50;;;10.25;;
23712;SDS011;12035;49.978;8.298;2022-12-11T02:53:01;19.58;;;11.18;;
23712;SDS011;12035;49.978;8.298;2022-12-11T02:58:01;19.25;;;10.82;;
23712;SDS011;12035;49.978;8.298;2022-12-11T03:03:04;20.20;;;11.40;;
23712;SDS011;12035;49.978;8.298;2022-12-11T03:08:02;19.25;;;10.95;;
23712;SDS011;12035;49.978;8.298;2022-12-11T03:12:59;15.63;;;9.07;;
23712;SDS011;12035;49.978;8.298;2022-12-11T03:18:01;17.63;;;10.38;;
23712;SDS011;12035;49.978;8.298;2022-12-11T03:23:08;17.58;;;9.88;;
23712;SDS011;12035;49.978;8.298;2022-12-11T03:28:16;16.25;;;9.60;;
23712;SDS011;12035;49.978;8.298;2022-12-11T03:33:18;17.27;;;9.90;;
23712;SDS011;12035;49.978;8.298;2022-12-11T03:38:20;17.23;;;9.82;;
23712;SDS011;12035;49.978;8.298;2022-12-11T03:43:20;16.73;;;9.18;;
23712;SDS011;12035;49.978;8.298;2022-12-11T03:48:20;19.88;;;9.95;;
23712;SDS011;12035;49.978;8.298;2022-12-11T03:53:18;18.45;;;10.18;;
23712;SDS011;12035;49.978;8.298;2022-12-11T03:58:16;16.08;;;9.50;;
23712;SDS011;12035;49.978;8.298;2022-12-11T04:03:13;17.45;;;9.52;;
23712;SDS011;12035;49.978;8.298;2022-12-11T04:08:13;14.60;;;8.35;;
23712;SDS011;12035;49.978;8.298;2022-12-11T04:13:10;15.60;;;9.77;;
23712;SDS011;12035;49.978;8.298;2022-12-11T04:18:08;16.98;;;10.23;;
23712;SDS011;12035;49.978;8.298;2022-12-11T04:23:24;17.70;;;10.50;;
23712;SDS011;12035;49.978;8.298;2022-12-11T04:28:39;17.63;;;10.13;;
23712;SDS011;12035;49.978;8.298;2022-12-11T04:33:38;24.25;;;11.02;;
23712;SDS011;12035;49.978;8.298;2022-12-11T04:38:36;16.17;;;10.02;;
23712;SDS011;12035;49.978;8.298;2022-12-11T04:43:34;19.52;;;10.43;;
23712;SDS011;12035;49.978;8.298;2022-12-11T04:48:31;20.08;;;12.00;;
23712;SDS011;12035;49.978;8.298;2022-12-11T04:53:28;20.92;;;12.43;;
23712;SDS011;12035;49.978;8.298;2022-12-11T04:58:27;19.60;;;10.95;;
23712;SDS011;12035;49.978;8.298;2022-12-11T05:03:24;22.55;;;11.77;;
23712;SDS011;12035;49.978;8.298;2022-12-11T05:08:21;19.92;;;11.05;;
23712;SDS011;12035;49.978;8.298;2022-12-11T05:13:19;20.52;;;11.90;;
23712;SDS011;12035;49.978;8.298;2022-12-11T05:18:17;22.95;;;12.27;;
23712;SDS011;12035;49.978;8.298;2022-12-11T05:23:14;22.95;;;12.85;;
23712;SDS011;12035;49.978;8.298;2022-12-11T05:28:11;19.80;;;11.70;;
23712;SDS011;12035;49.978;8.298;2022-12-11T05:33:08;20.42;;;10.82;;
23712;SDS011;12035;49.978;8.298;2022-12-11T05:38:06;18.90;;;9.73;;
23712;SDS011;12035;49.978;8.298;2022-12-11T05:43:04;16.17;;;9.60;;
23712;SDS011;12035;49.978;8.298;2022-12-11T05:48:01;19.33;;;10.30;;
23712;SDS011;12035;49.978;8.298;2022-12-11T05:52:58;17.50;;;10.45;;
23712;SDS011;12035;49.978;8.298;2022-12-11T05:57:56;17.40;;;9.90;;
23712;SDS011;12035;49.978;8.298;2022-12-11T06:02:53;19.50;;;11.30;;
23712;SDS011;12035;49.978;8.298;2022-12-11T06:07:51;23.38;;;12.80;;
23712;SDS011;12035;49.978;8.298;2022-12-11T06:12:48;22.38;;;12.60;;
23712;SDS011;12035;49.978;8.298;2022-12-11T06:17:46;21.10;;;11.90;;
23712;SDS011;12035;49.978;8.298;2022-12-11T06:22:43;19.42;;;10.43;;
23712;SDS011;12035;49.978;8.298;2022-12-11T06:27:40;19.02;;;11.35;;
23712;SDS011;12035;49.978;8.298;2022-12-11T06:32:37;18.27;;;10.60;;
23712;SDS011;12035;49.978;8.298;2022-12-11T06:37:36;18.42;;;10.50;;
23712;SDS011;12035;49.978;8.298;2022-12-11T06:42:34;19.40;;;10.75;;
23712;SDS011;12035;49.978;8.298;2022-12-11T06:47:31;17.13;;;10.20;;
23712;SDS011;12035;49.978;8.298;2022-12-11T06:52:28;19.65;;;10.43;;
23712;SDS011;12035;49.978;8.298;2022-12-11T06:57:27;17.05;;;10.45;;
23712;SDS011;12035;49.978;8.298;2022-12-11T07:02:24;20.00;;;10.73;;
23712;SDS011;12035;49.978;8.298;2022-12-11T07:07:21;17.92;;;10.07;;
23712;SDS011;12035;49.978;8.298;2022-12-11T07:12:18;16.13;;;9.63;;
23712;SDS011;12035;49.978;8.298;2022-12-11T07:17:16;17.63;;;10.27;;
23712;SDS011;12035;49.978;8.298;2022-12-11T07:22:13;20.40;;;11.25;;
23712;SDS011;12035;49.978;8.298;2022-12-11T07:27:10;20.85;;;11.07;;
23712;SDS011;12035;49.978;8.298;2022-12-11T07:32:07;20.73;;;10.98;;
23712;SDS011;12035;49.978;8.298;2022-12-11T07:37:06;20.20;;;10.50;;
23712;SDS011;12035;49.978;8.298;2022-12-11T07:42:03;17.85;;;10.82;;
23712;SDS011;12035;49.978;8.298;2022-12-11T07:47:00;16.25;;;10.05;;
23712;SDS011;12035;49.978;8.298;2022-12-11T07:51:57;17.63;;;9.85;;
23712;SDS011;12035;49.978;8.298;2022-12-11T07:56:55;19.05;;;10.95;;
23712;SDS011;12035;49.978;8.298;2022-12-11T08:01:53;18.35;;;10.60;;
23712;SDS011;12035;49.978;8.298;2022-12-11T08:06:52;18.45;;;11.05;;
23712;SDS011;12035;49.978;8.298;2022-12-11T08:11:49;19.38;;;10.13;;
23712;SDS011;12035;49.978;8.298;2022-12-11T08:16:48;18.00;;;10.60;;
23712;SDS011;12035;49.978;8.298;2022-12-11T08:21:45;20.90;;;11.07;;
23712;SDS011;12035;49.978;8.298;2022-12-11T08:26:42;20.73;;;12.00;;
23712;SDS011;12035;49.978;8.298;2022-12-11T08:31:41;19.52;;;11.70;;
23712;SDS011;12035;49.978;8.298;2022-12-11T08:36:39;19.73;;;11.45;;
23712;SDS011;12035;49.978;8.298;2022-12-11T08:41:37;22.88;;;12.50;;
23712;SDS011;12035;49.978;8.298;2022-12-11T08:46:35;22.48;;;13.18;;
23712;SDS011;12035;49.978;8.298;2022-12-11T08:51:32;23.42;;;12.20;;
23712;SDS011;12035;49.978;8.298;2022-12-11T08:56:32;23.77;;;12.45;;
23712;SDS011;12035;49.978;8.298;2022-12-11T09:01:29;23.27;;;13.63;;
23712;SDS011;12035;49.978;8.298;2022-12-11T09:06:27;24.88;;;13.73;;
23712;SDS011;12035;49.978;8.298;2022-12-11T09:11:26;21.02;;;11.40;;
23712;SDS011;12035;49.978;8.298;2022-12-11T09:16:27;21.63;;;12.85;;
23712;SDS011;12035;49.978;8.298;2022-12-11T09:21:25;23.85;;;13.02;;
23712;SDS011;12035;49.978;8.298;2022-12-11T09:26:25;21.15;;;13.23;;
23712;SDS011;12035;49.978;8.298;2022-12-11T09:31:24;21.63;;;12.73;;
23712;SDS011;12035;49.978;8.298;2022-12-11T09:36:25;21.70;;;11.35;;
23712;SDS011;12035;49.978;8.298;2022-12-11T09:41:25;20.88;;;12.45;;
23712;SDS011;12035;49.978;8.298;2022-12-11T09:46:33;19.23;;;11.82;;
23712;SDS011;12035;49.978;8.298;2022-12-11T09:51:32;21.42;;;11.95;;
23712;SDS011;12035;49.978;8.298;2022-12-11T09:56:38;21.27;;;11.52;;
23712;SDS011;12035;49.978;8.298;2022-12-11T10:01:43;21.33;;;12.40;;
23712;SDS011;12035;49.978;8.298;2022-12-11T10:06:49;19.37;;;12.00;;
23712;SDS011;12035;49.978;8.298;2022-12-11T10:11:58;18.73;;;11.75;;
23712;SDS011;12035;49.978;8.298;2022-12-11T10:17:10;21.23;;;13.02;;
23712;SDS011;12035;49.978;8.298;2022-12-11T10:22:13;17.95;;;11.50;;
23712;SDS011;12035;49.978;8.298;2022-12-11T10:27:17;20.02;;;11.23;;
23712;SDS011;12035;49.978;8.298;2022-12-11T10:32:20;19.98;;;12.07;;
23712;SDS011;12035;49.978;8.298;2022-12-11T10:37:19;19.80;;;11.57;;
23712;SDS011;12035;49.978;8.298;2022-12-11T10:42:17;23.10;;;12.45;;
23712;SDS011;12035;49.978;8.298;2022-12-11T10:47:17;25.48;;;13.38;;
23712;SDS011;12035;49.978;8.298;2022-12-11T10:52:18;23.05;;;13.43;;
23712;SDS011;12035;49.978;8.298;2022-12-11T10:57:24;22.98;;;13.85;;
23712;SDS011;12035;49.978;8.298;2022-12-11T11:02:25;23.17;;;13.63;;
23712;SDS011;12035;49.978;8.298;2022-12-11T11:07:27;22.45;;;13.20;;
23712;SDS011;12035;49.978;8.298;2022-12-11T11:12:26;22.58;;;13.20;;
23712;SDS011;12035;49.978;8.298;2022-12-11T11:17:23;21.48;;;11.85;;
23712;SDS011;12035;49.978;8.298;2022-12-11T11:22:20;22.08;;;13.57;;
23712;SDS011;12035;49.978;8.298;2022-12-11T11:27:23;20.60;;;12.88;;
23712;SDS011;12035;49.978;8.298;2022-12-11T11:32:26;20.80;;;11.63;;
23712;SDS011;12035;49.978;8.298;2022-12-11T11:37:31;20.35;;;12.48;;
23712;SDS011;12035;49.978;8.298;2022-12-11T11:42:35;20.27;;;11.93;;
23712;SDS011;12035;49.978;8.298;2022-12-11T11:47:39;24.48;;;14.10;;
23712;SDS011;12035;49.978;8.298;2022-12-11T11:52:45;23.45;;;13.68;;
23712;SDS011;12035;49.978;8.298;2022-12-11T11:57:54;24.95;;;13.90;;
23712;SDS011;12035;49.978;8.298;2022-12-11T12:02:56;24.20;;;14.07;;
23712;SDS011;12035;49.978;8.298;2022-12-11T12:08:00;22.42;;;14.10;;
23712;SDS011;12035;49.978;8.298;2022-12-11T12:13:10;26.38;;;14.30;;
23712;SDS011;12035;49.978;8.298;2022-12-11T12:18:23;24.98;;;13.70;;
23712;SDS011;12035;49.978;8.298;2022-12-11T12:23:37;20.67;;;12.20;;
23712;SDS011;12035;49.978;8.298;2022-12-11T12:28:56;23.35;;;13.05;;
23712;SDS011;12035;49.978;8.298;2022-12-11T12:34:09;21.67;;;12.98;;
23712;SDS011;12035;49.978;8.298;2022-12-11T12:39:17;23.50;;;13.20;;
23712;SDS011;12035;49.978;8.298;2022-12-11T12:44:22;23.98;;;13.52;;
23712;SDS011;12035;49.978;8.298;2022-12-11T12:49:27;20.65;;;11.63;;
23712;SDS011;12035;49.978;8.298;2022-12-11T12:54:32;21.90;;;13.43;;
23712;SDS011;12035;49.978;8.298;2022-12-11T12:59:32;28.33;;;15.02;;
23712;SDS011;12035;49.978;8.298;2022-12-11T13:04:34;25.10;;;15.02;;
23712;SDS011;12035;49.978;8.298;2022-12-11T13:09:35;25.20;;;14.48;;
23712;SDS011;12035;49.978;8.298;2022-12-11T13:14:34;25.85;;;14.85;;
23712;SDS011;12035;49.978;8.298;2022-12-11T13:19:32;27.25;;;14.95;;
23712;SDS011;12035;49.978;8.298;2022-12-11T13:24:31;32.88;;;17.63;;
23712;SDS011;12035;49.978;8.298;2022-12-11T13:29:30;27.85;;;15.95;;
23712;SDS011;12035;49.978;8.298;2022-12-11T13:34:31;26.98;;;14.98;;
23712;SDS011;12035;49.978;8.298;2022-12-11T13:39:33;25.33;;;14.40;;
23712;SDS011;12035;49.978;8.298;2022-12-11T13:44:33;24.42;;;13.80;;
23712;SDS011;12035;49.978;8.298;2022-12-11T13:49:37;29.27;;;15.77;;
23712;SDS011;12035;49.978;8.298;2022-12-11T13:54:37;29.77;;;16.13;;
23712;SDS011;12035;49.978;8.298;2022-12-11T13:59:46;27.85;;;15.27;;
23712;SDS011;12035;49.978;8.298;2022-12-11T14:04:50;24.63;;;14.40;;
23712;SDS011;12035;49.978;8.298;2022-12-11T14:09:51;25.33;;;13.77;;
23712;SDS011;12035;49.978;8.298;2022-12-11T14:14:56;21.92;;;12.90;;
23712;SDS011;12035;49.978;8.298;2022-12-11T14:19:58;26.15;;;13.55;;
23712;SDS011;12035;49.978;8.298;2022-12-11T14:25:11;29.90;;;16.08;;
23712;SDS011;12035;49.978;8.298;2022-12-11T14:30:20;38.55;;;19.08;;
23712;SDS011;12035;49.978;8.298;2022-12-11T14:35:23;31.90;;;17.27;;
23712;SDS011;12035;49.978;8.298;2022-12-11T14:40:24;33.17;;;15.88;;
23712;SDS011;12035;49.978;8.298;2022-12-11T14:45:27;38.33;;;18.73;;
23712;SDS011;12035;49.978;8.298;2022-12-11T14:50:32;31.27;;;16.77;;
23712;SDS011;12035;49.978;8.298;2022-12-11T14:55:34;27.45;;;15.20;;
23712;SDS011;12035;49.978;8.298;2022-12-11T15:00:34;26.75;;;14.07;;
23712;SDS011;12035;49.978;8.298;2022-12-11T15:05:33;24.48;;;14.25;;
23712;SDS011;12035;49.978;8.298;2022-12-11T15:10:33;27.38;;;14.85;;
23712;SDS011;12035;49.978;8.298;2022-12-11T15:15:36;25.88;;;14.38;;
23712;SDS011;12035;49.978;8.298;2022-12-11T15:20:42;29.95;;;15.75;;
23712;SDS011;12035;49.978;8.298;2022-12-11T15:25:39;26.27;;;13.90;;
23712;SDS011;12035;49.978;8.298;2022-12-11T15:30:53;27.98;;;15.45;;
23712;SDS011;12035;49.978;8.298;2022-12-11T15:35:58;29.17;;;16.55;;
23712;SDS011;12035;49.978;8.298;2022-12-11T15:40:58;26.38;;;14.82;;
23712;SDS011;12035;49.978;8.298;2022-12-11T15:45:56;25.13;;;13.63;;
23712;SDS011;12035;49.978;8.298;2022-12-11T15:50:53;25.85;;;13.90;;
23712;SDS011;12035;49.978;8.298;2022-12-11T15:55:52;23.42;;;12.43;;
23712;SDS011;12035;49.978;8.298;2022-12-11T16:00:49;20.73;;;12.00;;
23712;SDS011;12035;49.978;8.298;2022-12-11T16:05:47;24.58;;;12.98;;
23712;SDS011;12035;49.978;8.298;2022-12-11T16:10:45;24.73;;;13.32;;
23712;SDS011;12035;49.978;8.298;2022-12-11T16:15:45;26.17;;;12.88;;
23712;SDS011;12035;49.978;8.298;2022-12-11T16:20:44;22.25;;;12.10;;
23712;SDS011;12035;49.978;8.298;2022-12-11T16:25:43;19.95;;;11.27;;
23712;SDS011;12035;49.978;8.298;2022-12-11T16:30:41;21.08;;;11.82;;
23712;SDS011;12035;49.978;8.298;2022-12-11T16:35:40;18.45;;;10.23;;
23712;SDS011;12035;49.978;8.298;2022-12-11T16:40:37;20.00;;;11.45;;
23712;SDS011;12035;49.978;8.298;2022-12-11T16:45:35;21.67;;;12.05;;
23712;SDS011;12035;49.978;8.298;2022-12-11T16:50:32;23.40;;;13.30;;
23712;SDS011;12035;49.978;8.298;2022-12-11T16:55:31;25.80;;;13.90;;
23712;SDS011;12035;49.978;8.298;2022-12-11T17:00:29;24.85;;;12.55;;
23712;SDS011;12035;49.978;8.298;2022-12-11T17:05:26;25.33;;;13.18;;
23712;SDS011;12035;49.978;8.298;2022-12-11T17:10:23;24.20;;;13.18;;
23712;SDS011;12035;49.978;8.298;2022-12-11T17:15:21;22.25;;;11.80;;
23712;SDS011;12035;49.978;8.298;2022-12-11T17:20:18;21.58;;;11.63;;
23712;SDS011;12035;49.978;8.298;2022-12-11T17:25:15;21.60;;;11.88;;
23712;SDS011;12035;49.978;8.298;2022-12-11T17:30:16;23.20;;;11.90;;
23712;SDS011;12035;49.978;8.298;2022-12-11T17:35:14;21.40;;;12.38;;
23712;SDS011;12035;49.978;8.298;2022-12-11T17:40:12;19.52;;;10.93;;
23712;SDS011;12035;49.978;8.298;2022-12-11T17:45:09;21.63;;;12.73;;
23712;SDS011;12035;49.978;8.298;2022-12-11T17:50:08;28.20;;;13.70;;
23712;SDS011;12035;49.978;8.298;2022-12-11T17:55:08;24.95;;;13.43;;
23712;SDS011;12035;49.978;8.298;2022-12-11T18:00:06;26.33;;;12.88;;
23712;SDS011;12035;49.978;8.298;2022-12-11T18:05:04;25.08;;;12.98;;
23712;SDS011;12035;49.978;8.298;2022-12-11T18:10:02;24.27;;;12.43;;
23712;SDS011;12035;49.978;8.298;2022-12-11T18:15:04;23.88;;;12.23;;
23712;SDS011;12035;49.978;8.298;2022-12-11T18:20:04;24.33;;;12.60;;
23712;SDS011;12035;49.978;8.298;2022-12-11T18:25:03;26.08;;;13.45;;
23712;SDS011;12035;49.978;8.298;2022-12-11T18:30:02;25.70;;;13.68;;
23712;SDS011;12035;49.978;8.298;2022-12-11T18:35:02;23.05;;;12.93;;
23712;SDS011;12035;49.978;8.298;2022-12-11T18:40:00;27.38;;;14.77;;
23712;SDS011;12035;49.978;8.298;2022-12-11T18:44:57;31.08;;;15.85;;
23712;SDS011;12035;49.978;8.298;2022-12-11T18:49:56;28.08;;;15.23;;
23712;SDS011;12035;49.978;8.298;2022-12-11T18:54:53;29.33;;;14.48;;
23712;SDS011;12035;49.978;8.298;2022-12-11T18:59:50;24.45;;;13.52;;
23712;SDS011;12035;49.978;8.298;2022-12-11T19:04:48;28.35;;;15.27;;
23712;SDS011;12035;49.978;8.298;2022-12-11T19:09:47;25.33;;;14.98;;
23712;SDS011;12035;49.978;8.298;2022-12-11T19:14:44;27.27;;;13.95;;
23712;SDS011;12035;49.978;8.298;2022-12-11T19:19:41;34.15;;;16.65;;
23712;SDS011;12035;49.978;8.298;2022-12-11T19:24:40;28.88;;;15.45;;
23712;SDS011;12035;49.978;8.298;2022-12-11T19:29:41;33.92;;;16.30;;
23712;SDS011;12035;49.978;8.298;2022-12-11T19:34:38;29.80;;;14.85;;
23712;SDS011;12035;49.978;8.298;2022-12-11T19:39:36;28.95;;;15.27;;
23712;SDS011;12035;49.978;8.298;2022-12-11T19:44:34;25.35;;;14.05;;
23712;SDS011;12035;49.978;8.298;2022-12-11T19:49:33;26.08;;;12.98;;
23712;SDS011;12035;49.978;8.298;2022-12-11T19:54:30;24.08;;;12.95;;
23712;SDS011;12035;49.978;8.298;2022-12-11T19:59:27;23.00;;;12.18;;
23712;SDS011;12035;49.978;8.298;2022-12-11T20:04:24;25.95;;;14.50;;
23712;SDS011;12035;49.978;8.298;2022-12-11T20:09:22;27.80;;;14.40;;
23712;SDS011;12035;49.978;8.298;2022-12-11T20:14:20;23.88;;;13.07;;
23712;SDS011;12035;49.978;8.298;2022-12-11T20:19:20;26.85;;;13.82;;
23712;SDS011;12035;49.978;8.298;2022-12-11T20:24:17;29.23;;;14.90;;
23712;SDS011;12035;49.978;8.298;2022-12-11T20:29:15;28.88;;;15.50;;
23712;SDS011;12035;49.978;8.298;2022-12-11T20:34:13;30.63;;;14.30;;
23712;SDS011;12035;49.978;8.298;2022-12-11T20:39:10;26.25;;;12.93;;
23712;SDS011;12035;49.978;8.298;2022-12-11T20:44:09;25.20;;;13.05;;
23712;SDS011;12035;49.978;8.298;2022-12-11T20:49:07;25.67;;;13.90;;
23712;SDS011;12035;49.978;8.298;2022-12-11T20:54:07;26.75;;;14.10;;
23712;SDS011;12035;49.978;8.298;2022-12-11T20:59:04;27.38;;;13.90;;
23712;SDS011;12035;49.978;8.298;2022-12-11T21:04:01;27.17;;;14.63;;
23712;SDS011;12035;49.978;8.298;2022-12-11T21:09:00;26.80;;;14.18;;
23712;SDS011;12035;49.978;8.298;2022-12-11T21:14:00;28.70;;;15.15;;
23712;SDS011;12035;49.978;8.298;2022-12-11T21:18:58;23.27;;;12.40;;
23712;SDS011;12035;49.978;8.298;2022-12-11T21:23:56;29.13;;;14.60;;
23712;SDS011;12035;49.978;8.298;2022-12-11T21:28:55;26.35;;;13.80;;
23712;SDS011;12035;49.978;8.298;2022-12-11T21:33:52;26.15;;;13.68;;
23712;SDS011;12035;49.978;8.298;2022-12-11T21:38:49;21.02;;;10.95;;
23712;SDS011;12035;49.978;8.298;2022-12-11T21:43:47;28.27;;;15.20;;
23712;SDS011;12035;49.978;8.298;2022-12-11T21:48:48;31.45;;;15.73;;
23712;SDS011;12035;49.978;8.298;2022-12-11T21:53:45;28.15;;;14.77;;
23712;SDS011;12035;49.978;8.298;2022-12-11T21:58:43;24.77;;;12.60;;
23712;SDS011;12035;49.978;8.298;2022-12-11T22:03:40;30.67;;;14.65;;
23712;SDS011;12035;49.978;8.298;2022-12-11T22:08:39;28.13;;;14.38;;
23712;SDS011;12035;49.978;8.298;2022-12-11T22:13:36;25.05;;;13.20;;
23712;SDS011;12035;49.978;8.298;2022-12-11T22:18:33;30.52;;;15.07;;
23712;SDS011;12035;49.978;8.298;2022-12-11T22:23:32;32.17;;;14.55;;
23712;SDS011;12035;49.978;8.298;2022-12-11T22:28:30;29.48;;;14.73;;
23712;SDS011;12035;49.978;8.298;2022-12-11T22:33:27;28.20;;;14.65;;
23712;SDS011;12035;49.978;8.298;2022-12-11T22:38:24;29.20;;;13.85;;
23712;SDS011;12035;49.978;8.298;2022-12-11T22:43:21;25.92;;;13.40;;
23712;SDS011;12035;49.978;8.298;2022-12-11T22:48:20;29.88;;;14.65;;
23712;SDS011;12035;49.978;8.298;2022-12-11T22:53:21;25.23;;;12.82;;
23712;SDS011;12035;49.978;8.298;2022-12-11T22:58:18;26.05;;;13.77;;
23712;SDS011;12035;49.978;8.298;2022-12-11T23:03:15;32.80;;;13.77;;
23712;SDS011;12035;49.978;8.298;2022-12-11T23:08:13;28.27;;;14.55;;
23712;SDS011;12035;49.978;8.298;2022-12-11T23:13:10;26.38;;;14.10;;
23712;SDS011;12035;49.978;8.298;2022-12-11T23:18:07;27.70;;;13.88;;
23712;SDS011;12035;49.978;8.298;2022-12-11T23:23:05;29.92;;;14.57;;
23712;SDS011;12035;49.978;8.298;2022-12-11T23:28:04;30.35;;;14.85;;
23712;SDS011;12035;49.978;8.298;2022-12-11T23:33:01;29.92;;;13.95;;
23712;SDS011;12035;49.978;8.298;2022-12-11T23:38:00;29.52;;;15.63;;
23712;SDS011;12035;49.978;8.298;2022-12-11T23:42:59;27.70;;;13.48;;
23712;SDS011;12035;49.978;8.298;2022-12-11T23:47:57;26.52;;;13.68;;
23712;SDS011;12035;49.978;8.298;2022-12-11T23:52:55;26.92;;;14.13;;
23712;SDS011;12035;49.978;8.298;2022-12-11T23:57:52;29.30;;;14.50;;
